»·PEaware :: N733WT KSBP-KSBP

N733WT :: KSBP-KSBP

FLIGHT INFORMATION

Flight Status: Arrived
Operator: Privately registered:
United States
More flights under this callsign
Pilot: Jeremy K. (15416)
Aircraft: CESSNA 172 SKYHAWK
(C172)
More flights by this aircraft type
Origin: KSBP San Luis Co Regl
United States
Destination: KSBP San Luis Co Regl
United States
More flights between these airports :: More routes between these airports
Route: +
File this flight plan on PilotEdge
Remarks:
Altitude:
(Current/Filed)
0ft
Speed:
(Current/Filed)
0kts
Departed: 16-Feb-18 03:03 PM
Arrived: 16-Feb-18 03:55 PM
Distance/Time
Traveled:
0nm/0:52
Distance/Time
To Go:
Arrived

Flight Plot

Page will automatically refresh every two minutes.


Map Options




Map Legend


Flown Route
Filed Route
Departure Airport
Arrival Airport
Navaid (VOR, NDB)
Fix

Horizontal Profiles

Position Reports

Time Latitude Longitude Heading Altitude Ground
Speed
16-Feb-18 15:04 35.234341 -120.633227 303 214ft 11kts
16-Feb-18 15:05 35.234003 -120.633214 120 214ft 17kts
16-Feb-18 15:06 35.233310 -120.632375 178 214ft 5kts
16-Feb-18 15:07 35.233202 -120.632416 211 214ft 0kts
16-Feb-18 15:08 35.233202 -120.632416 211 214ft 0kts
16-Feb-18 15:09 35.232868 -120.632746 244 214ft 15kts
16-Feb-18 15:10 35.233861 -120.634967 306 214ft 47kts
16-Feb-18 15:11 35.236860 -120.640903 299 407ft 71kts
16-Feb-18 15:12 35.239333 -120.647534 297 722ft 71kts
16-Feb-18 15:13 35.241479 -120.653961 295 932ft 80kts
16-Feb-18 15:14 35.244326 -120.662087 299 1218ft 81kts
16-Feb-18 15:15 35.247585 -120.670213 297 1467ft 86kts
16-Feb-18 15:16 35.251026 -120.679220 301 1620ft 97kts
16-Feb-18 15:17 35.255512 -120.688451 305 1739ft 106kts
16-Feb-18 15:18 35.260394 -120.697628 305 1993ft 103kts
16-Feb-18 15:19 35.265208 -120.706972 303 2200ft 104kts
16-Feb-18 15:20 35.269504 -120.716269 301 2586ft 91kts
16-Feb-18 15:21 35.273350 -120.725378 296 2851ft 93kts
16-Feb-18 15:22 35.277472 -120.734530 305 3124ft 90kts
16-Feb-18 15:23 35.281959 -120.742829 305 3413ft 88kts
16-Feb-18 15:24 35.286679 -120.751071 307 3683ft 86kts
16-Feb-18 15:25 35.290130 -120.758742 303 4140ft 65kts
16-Feb-18 15:26 35.293421 -120.765225 305 4353ft 74kts
16-Feb-18 15:27 35.297761 -120.772774 306 4602ft 75kts
16-Feb-18 15:28 35.301167 -120.780647 298 5001ft 59kts
16-Feb-18 15:29 35.303424 -120.787775 302 5095ft 81kts
16-Feb-18 15:30 35.305826 -120.794225 299 5360ft 51kts
16-Feb-18 15:31 35.308231 -120.799173 305 5200ft 56kts
16-Feb-18 15:32 35.309536 -120.805846 266 5319ft 71kts
16-Feb-18 15:33 35.306572 -120.810762 187 5477ft 87kts
16-Feb-18 15:34 35.303316 -120.809588 136 5474ft 100kts
16-Feb-18 15:35 35.295523 -120.802420 140 5590ft 113kts
16-Feb-18 15:36 35.287935 -120.794809 136 5833ft 108kts
16-Feb-18 15:37 35.279453 -120.787599 163 6091ft 107kts
16-Feb-18 15:38 35.269216 -120.786138 202 6265ft 110kts
16-Feb-18 15:39 35.262740 -120.795781 199 6569ft 97kts
16-Feb-18 15:40 35.251897 -120.799648 167 6547ft 118kts
16-Feb-18 15:41 35.245191 -120.788015 70 6660ft 113kts
16-Feb-18 15:42 35.247083 -120.775276 85 6850ft 112kts
16-Feb-18 15:43 35.242939 -120.763962 125 6368ft 129kts
16-Feb-18 15:44 35.234724 -120.755233 165 6086ft 116kts
16-Feb-18 15:45 35.229852 -120.760497 312 5782ft 92kts
16-Feb-18 15:46 35.235197 -120.757893 97 5426ft 112kts
16-Feb-18 15:47 35.227642 -120.749694 147 4844ft 134kts
16-Feb-18 15:48 35.217123 -120.743223 152 3938ft 162kts
16-Feb-18 15:49 35.212162 -120.730585 92 3894ft 114kts
16-Feb-18 15:50 35.211330 -120.718859 96 3519ft 140kts
16-Feb-18 15:51 35.209891 -120.700949 86 2772ft 162kts
16-Feb-18 15:52 35.214180 -120.684872 56 2089ft 154kts
16-Feb-18 15:53 35.221671 -120.671135 50 1522ft 144kts
16-Feb-18 15:54 35.228030 -120.658797 77 1249ft 121kts
16-Feb-18 15:55 35.225710 -120.647560 112 1201ft 95kts
16-Feb-18 15:56 35.222067 -120.639069 120 1095ft 83kts
16-Feb-18 15:57 35.219072 -120.631385 61 961ft 72kts
16-Feb-18 15:58 35.221868 -120.625654 44 876ft 67kts
16-Feb-18 15:59 35.226541 -120.624550 323 723ft 62kts
16-Feb-18 16:00 35.230417 -120.629124 303 443ft 66kts
16-Feb-18 16:01 35.233446 -120.634261 304 239ft 49kts
16-Feb-18 16:02 35.235534 -120.637798 305 214ft 33kts
16-Feb-18 16:03 35.236932 -120.639944 344 214ft 13kts
16-Feb-18 16:04 35.237276 -120.639954 8 214ft 0kts
16-Feb-18 16:05 35.237456 -120.639176 124 214ft 20kts

Navigation Log

Ident Type
1. KSBP Airport
2. KSBP Airport